SGCO/CIO METAR and TAF weather

Enter ICAO airport designator
Station Type Date Time Source
SGCO METAR 2021/04/12 18:00 UTC NOAA

SGCO 121800Z 22008KT 9999 FEW033 27/16 Q1016


Station Type Date Time Source
SGCO Decoded METAR 2021/04/12 18:00 UTC NOAA

Concepcion, Paraguay (SGCO) 23-25S 057-18W 74M
Apr 12, 2021 - 02:00 PM EDT / 2021.04.12 1800 UTC
Wind: from the SW (220 degrees) at 9 MPH (8 KT):0
Visibility: greater than 7 mile(s):0
Sky conditions: mostly clear
Temperature: 80 F (27 C)
Dew Point: 60 F (16 C)
Relative Humidity: 50%
Pressure (altimeter): 30.00 in. Hg (1016 hPa)
ob: SGCO 121800Z 22008KT 9999 FEW033 27/16 Q1016
cycle: 18

Station Type Date Time Source
SGCO TAF 2021/04/17 18:00 UTC NOAA

TAF SGCO 171645Z 1718/1818 15007KT 9999 BKN024 TX32/1719Z TN20/1810Z PROB30
TEMPO 1719/1721 8000 SHRA BKN020 FEW040TCU
BECMG 1723/1802 VRB03KT 9999 SCT030
BECMG 1803/1806 00000 CAVOK
TEMPO 1808/1810 VRB02KT 7000 NSC
BECMG 1812/1815 15005KT CAVOK

Example: see airport list